sensor_id;sensor_type;location;lat;lon;timestamp;temperature;humidity
5850;DHT22;2951;47.712;9.400;2023-06-19T00:00:28;22.10;99.90
5850;DHT22;2951;47.712;9.400;2023-06-19T00:02:57;22.10;99.90
5850;DHT22;2951;47.712;9.400;2023-06-19T00:05:24;22.10;99.90
5850;DHT22;2951;47.712;9.400;2023-06-19T00:07:51;22.10;99.90
5850;DHT22;2951;47.712;9.400;2023-06-19T00:10:18;22.00;99.90
5850;DHT22;2951;47.712;9.400;2023-06-19T00:12:45;22.00;99.90
5850;DHT22;2951;47.712;9.400;2023-06-19T00:15:12;22.00;99.90
5850;DHT22;2951;47.712;9.400;2023-06-19T00:17:39;22.00;99.90
5850;DHT22;2951;47.712;9.400;2023-06-19T00:20:06;21.90;99.90
5850;DHT22;2951;47.712;9.400;2023-06-19T00:22:33;21.90;99.90
5850;DHT22;2951;47.712;9.400;2023-06-19T00:24:59;21.60;99.90
5850;DHT22;2951;47.712;9.400;2023-06-19T00:27:26;21.60;99.90
5850;DHT22;2951;47.712;9.400;2023-06-19T00:29:53;21.60;99.90
5850;DHT22;2951;47.712;9.400;2023-06-19T00:32:20;21.60;99.90
5850;DHT22;2951;47.712;9.400;2023-06-19T00:34:46;21.60;99.90
5850;DHT22;2951;47.712;9.400;2023-06-19T00:37:13;21.40;99.90
5850;DHT22;2951;47.712;9.400;2023-06-19T00:39:40;21.50;99.90
5850;DHT22;2951;47.712;9.400;2023-06-19T00:42:10;21.40;99.90
5850;DHT22;2951;47.712;9.400;2023-06-19T00:44:36;21.50;99.90
5850;DHT22;2951;47.712;9.400;2023-06-19T00:47:03;21.40;99.90
5850;DHT22;2951;47.712;9.400;2023-06-19T00:49:30;21.40;99.90
5850;DHT22;2951;47.712;9.400;2023-06-19T00:51:57;21.50;99.90
5850;DHT22;2951;47.712;9.400;2023-06-19T00:54:24;21.50;99.90
5850;DHT22;2951;47.712;9.400;2023-06-19T00:56:51;21.50;99.90
5850;DHT22;2951;47.712;9.400;2023-06-19T00:59:19;21.40;99.90
5850;DHT22;2951;47.712;9.400;2023-06-19T01:01:46;21.30;99.90
5850;DHT22;2951;47.712;9.400;2023-06-19T01:04:13;21.20;99.90
5850;DHT22;2951;47.712;9.400;2023-06-19T01:06:42;21.10;99.90
5850;DHT22;2951;47.712;9.400;2023-06-19T01:09:11;21.10;99.90
5850;DHT22;2951;47.712;9.400;2023-06-19T01:11:42;21.00;99.90
5850;DHT22;2951;47.712;9.400;2023-06-19T01:14:30;21.00;99.90
5850;DHT22;2951;47.712;9.400;2023-06-19T01:16:59;20.90;99.90
5850;DHT22;2951;47.712;9.400;2023-06-19T01:19:26;20.70;99.90
5850;DHT22;2951;47.712;9.400;2023-06-19T01:21:53;20.70;99.90
5850;DHT22;2951;47.712;9.400;2023-06-19T01:24:20;20.60;99.90
5850;DHT22;2951;47.712;9.400;2023-06-19T01:26:47;20.50;99.90
5850;DHT22;2951;47.712;9.400;2023-06-19T01:29:14;20.50;99.90
5850;DHT22;2951;47.712;9.400;2023-06-19T01:34:21;20.50;99.90
5850;DHT22;2951;47.712;9.400;2023-06-19T01:36:48;20.50;99.90
5850;DHT22;2951;47.712;9.400;2023-06-19T01:39:16;20.40;99.90
5850;DHT22;2951;47.712;9.400;2023-06-19T01:41:44;20.50;99.90
5850;DHT22;2951;47.712;9.400;2023-06-19T01:44:12;20.50;99.90
5850;DHT22;2951;47.712;9.400;2023-06-19T01:46:39;20.50;99.90
5850;DHT22;2951;47.712;9.400;2023-06-19T01:49:07;20.50;99.90
5850;DHT22;2951;47.712;9.400;2023-06-19T01:51:34;20.70;99.90
5850;DHT22;2951;47.712;9.400;2023-06-19T01:54:02;20.80;99.90
5850;DHT22;2951;47.712;9.400;2023-06-19T01:56:29;20.70;99.90
5850;DHT22;2951;47.712;9.400;2023-06-19T01:58:56;20.60;99.90
5850;DHT22;2951;47.712;9.400;2023-06-19T02:01:23;20.40;99.90
5850;DHT22;2951;47.712;9.400;2023-06-19T02:03:50;20.40;99.90
5850;DHT22;2951;47.712;9.400;2023-06-19T02:06:16;20.20;99.90
5850;DHT22;2951;47.712;9.400;2023-06-19T02:08:43;20.00;99.90
5850;DHT22;2951;47.712;9.400;2023-06-19T02:11:10;19.90;99.90
5850;DHT22;2951;47.712;9.400;2023-06-19T02:13:36;19.80;99.90
5850;DHT22;2951;47.712;9.400;2023-06-19T02:16:05;19.70;99.90
5850;DHT22;2951;47.712;9.400;2023-06-19T02:18:32;19.70;99.90
5850;DHT22;2951;47.712;9.400;2023-06-19T02:20:59;19.70;99.90
5850;DHT22;2951;47.712;9.400;2023-06-19T02:23:26;19.70;99.90
5850;DHT22;2951;47.712;9.400;2023-06-19T02:25:52;19.70;99.90
5850;DHT22;2951;47.712;9.400;2023-06-19T02:28:19;19.70;99.90
5850;DHT22;2951;47.712;9.400;2023-06-19T02:30:46;19.60;99.90
5850;DHT22;2951;47.712;9.400;2023-06-19T02:33:13;19.70;99.90
5850;DHT22;2951;47.712;9.400;2023-06-19T02:35:40;19.60;99.90
5850;DHT22;2951;47.712;9.400;2023-06-19T02:38:08;19.50;99.90
5850;DHT22;2951;47.712;9.400;2023-06-19T02:40:35;19.50;99.90
5850;DHT22;2951;47.712;9.400;2023-06-19T02:43:01;19.40;99.90
5850;DHT22;2951;47.712;9.400;2023-06-19T02:45:28;19.40;99.90
5850;DHT22;2951;47.712;9.400;2023-06-19T02:47:55;19.30;99.90
5850;DHT22;2951;47.712;9.400;2023-06-19T02:50:21;19.10;99.90
5850;DHT22;2951;47.712;9.400;2023-06-19T02:52:48;19.00;99.90
5850;DHT22;2951;47.712;9.400;2023-06-19T02:55:15;18.90;99.90
5850;DHT22;2951;47.712;9.400;2023-06-19T02:57:42;18.90;99.90
5850;DHT22;2951;47.712;9.400;2023-06-19T03:00:09;18.90;99.90
5850;DHT22;2951;47.712;9.400;2023-06-19T03:02:36;19.10;99.90
5850;DHT22;2951;47.712;9.400;2023-06-19T03:05:03;19.00;99.90
5850;DHT22;2951;47.712;9.400;2023-06-19T03:07:30;18.90;99.90
5850;DHT22;2951;47.712;9.400;2023-06-19T03:09:57;18.80;99.90
5850;DHT22;2951;47.712;9.400;2023-06-19T03:12:23;18.90;99.90
5850;DHT22;2951;47.712;9.400;2023-06-19T03:14:50;19.00;99.90
5850;DHT22;2951;47.712;9.400;2023-06-19T03:17:17;19.20;99.90
5850;DHT22;2951;47.712;9.400;2023-06-19T03:19:43;19.30;99.90
5850;DHT22;2951;47.712;9.400;2023-06-19T03:22:10;19.40;99.90
5850;DHT22;2951;47.712;9.400;2023-06-19T03:24:37;19.50;99.90
5850;DHT22;2951;47.712;9.400;2023-06-19T03:27:04;19.50;99.90
5850;DHT22;2951;47.712;9.400;2023-06-19T03:29:31;19.60;99.90
5850;DHT22;2951;47.712;9.400;2023-06-19T03:31:57;19.70;99.90
5850;DHT22;2951;47.712;9.400;2023-06-19T03:34:24;19.80;99.90
5850;DHT22;2951;47.712;9.400;2023-06-19T03:36:51;19.80;99.90
5850;DHT22;2951;47.712;9.400;2023-06-19T03:39:18;19.80;99.90
5850;DHT22;2951;47.712;9.400;2023-06-19T03:41:47;19.70;99.90
5850;DHT22;2951;47.712;9.400;2023-06-19T03:44:13;19.60;99.90
5850;DHT22;2951;47.712;9.400;2023-06-19T03:46:40;19.50;99.90
5850;DHT22;2951;47.712;9.400;2023-06-19T03:49:07;19.50;99.90
5850;DHT22;2951;47.712;9.400;2023-06-19T03:51:35;19.60;99.90
5850;DHT22;2951;47.712;9.400;2023-06-19T03:54:02;19.60;99.90
5850;DHT22;2951;47.712;9.400;2023-06-19T03:56:29;19.70;99.90
5850;DHT22;2951;47.712;9.400;2023-06-19T03:58:57;19.70;99.90
5850;DHT22;2951;47.712;9.400;2023-06-19T04:01:24;19.70;99.90
5850;DHT22;2951;47.712;9.400;2023-06-19T04:03:50;19.60;99.90
5850;DHT22;2951;47.712;9.400;2023-06-19T04:06:17;19.50;99.90
5850;DHT22;2951;47.712;9.400;2023-06-19T04:08:44;19.50;99.90
5850;DHT22;2951;47.712;9.400;2023-06-19T04:11:10;19.60;99.90
5850;DHT22;2951;47.712;9.400;2023-06-19T04:13:37;19.60;99.90
5850;DHT22;2951;47.712;9.400;2023-06-19T04:16:04;19.60;99.90
5850;DHT22;2951;47.712;9.400;2023-06-19T04:18:30;19.60;99.90
5850;DHT22;2951;47.712;9.400;2023-06-19T04:20:58;19.60;99.90
5850;DHT22;2951;47.712;9.400;2023-06-19T04:23:24;19.70;99.90
5850;DHT22;2951;47.712;9.400;2023-06-19T04:25:51;19.70;99.90
5850;DHT22;2951;47.712;9.400;2023-06-19T04:28:18;19.70;99.90
5850;DHT22;2951;47.712;9.400;2023-06-19T04:30:45;19.70;99.90
5850;DHT22;2951;47.712;9.400;2023-06-19T04:33:11;19.80;99.90
5850;DHT22;2951;47.712;9.400;2023-06-19T04:35:38;19.90;99.90
5850;DHT22;2951;47.712;9.400;2023-06-19T04:38:07;20.00;99.90
5850;DHT22;2951;47.712;9.400;2023-06-19T04:40:34;20.00;99.90
5850;DHT22;2951;47.712;9.400;2023-06-19T04:43:01;20.10;99.90
5850;DHT22;2951;47.712;9.400;2023-06-19T04:45:28;20.10;99.90
5850;DHT22;2951;47.712;9.400;2023-06-19T04:47:55;20.00;99.90
5850;DHT22;2951;47.712;9.400;2023-06-19T04:50:22;20.10;99.90
5850;DHT22;2951;47.712;9.400;2023-06-19T04:52:49;20.10;99.90
5850;DHT22;2951;47.712;9.400;2023-06-19T04:55:17;20.10;99.90
5850;DHT22;2951;47.712;9.400;2023-06-19T04:57:44;20.00;99.90
5850;DHT22;2951;47.712;9.400;2023-06-19T05:00:11;19.90;99.90
5850;DHT22;2951;47.712;9.400;2023-06-19T05:02:38;19.90;99.90
5850;DHT22;2951;47.712;9.400;2023-06-19T05:05:05;19.90;99.90
5850;DHT22;2951;47.712;9.400;2023-06-19T05:07:32;19.80;99.90
5850;DHT22;2951;47.712;9.400;2023-06-19T05:09:59;19.80;99.90
5850;DHT22;2951;47.712;9.400;2023-06-19T05:12:25;19.80;99.90
5850;DHT22;2951;47.712;9.400;2023-06-19T05:14:52;19.80;99.90
5850;DHT22;2951;47.712;9.400;2023-06-19T05:17:19;19.80;99.90
5850;DHT22;2951;47.712;9.400;2023-06-19T05:19:46;20.00;99.90
5850;DHT22;2951;47.712;9.400;2023-06-19T05:22:13;20.20;99.90
5850;DHT22;2951;47.712;9.400;2023-06-19T05:24:40;20.30;99.90
5850;DHT22;2951;47.712;9.400;2023-06-19T05:27:07;20.30;99.90
5850;DHT22;2951;47.712;9.400;2023-06-19T05:29:33;20.30;99.90
5850;DHT22;2951;47.712;9.400;2023-06-19T05:32:00;20.20;99.90
5850;DHT22;2951;47.712;9.400;2023-06-19T05:34:27;20.30;99.90
5850;DHT22;2951;47.712;9.400;2023-06-19T05:36:53;20.40;99.90
5850;DHT22;2951;47.712;9.400;2023-06-19T05:39:20;20.30;99.90
5850;DHT22;2951;47.712;9.400;2023-06-19T05:41:47;20.30;99.90
5850;DHT22;2951;47.712;9.400;2023-06-19T05:44:14;20.30;99.90
5850;DHT22;2951;47.712;9.400;2023-06-19T05:46:43;20.20;99.90
5850;DHT22;2951;47.712;9.400;2023-06-19T05:49:10;20.30;99.90
5850;DHT22;2951;47.712;9.400;2023-06-19T05:51:37;20.20;99.90
5850;DHT22;2951;47.712;9.400;2023-06-19T05:54:03;20.20;99.90
5850;DHT22;2951;47.712;9.400;2023-06-19T05:56:31;20.20;99.90
5850;DHT22;2951;47.712;9.400;2023-06-19T05:59:00;20.30;99.90
5850;DHT22;2951;47.712;9.400;2023-06-19T06:01:27;20.30;99.90
5850;DHT22;2951;47.712;9.400;2023-06-19T06:03:55;20.40;99.90
5850;DHT22;2951;47.712;9.400;2023-06-19T06:06:22;20.40;99.90
5850;DHT22;2951;47.712;9.400;2023-06-19T06:08:49;20.60;99.90
5850;DHT22;2951;47.712;9.400;2023-06-19T06:11:17;20.70;99.90
5850;DHT22;2951;47.712;9.400;2023-06-19T06:13:44;20.70;99.90
5850;DHT22;2951;47.712;9.400;2023-06-19T06:16:11;20.50;99.90
5850;DHT22;2951;47.712;9.400;2023-06-19T06:18:37;20.50;99.90
5850;DHT22;2951;47.712;9.400;2023-06-19T06:21:04;20.40;99.90
5850;DHT22;2951;47.712;9.400;2023-06-19T06:23:31;20.40;99.90
5850;DHT22;2951;47.712;9.400;2023-06-19T06:25:58;20.40;99.90
5850;DHT22;2951;47.712;9.400;2023-06-19T06:28:28;20.40;99.90
5850;DHT22;2951;47.712;9.400;2023-06-19T06:30:55;20.40;99.90
5850;DHT22;2951;47.712;9.400;2023-06-19T06:33:23;20.30;99.90
5850;DHT22;2951;47.712;9.400;2023-06-19T06:35:49;20.30;99.90
5850;DHT22;2951;47.712;9.400;2023-06-19T06:38:18;20.30;99.90
5850;DHT22;2951;47.712;9.400;2023-06-19T06:40:45;20.40;99.90
5850;DHT22;2951;47.712;9.400;2023-06-19T06:43:12;20.50;99.90
5850;DHT22;2951;47.712;9.400;2023-06-19T06:45:39;20.60;99.90
5850;DHT22;2951;47.712;9.400;2023-06-19T06:48:08;20.60;99.90
5850;DHT22;2951;47.712;9.400;2023-06-19T06:50:35;20.60;99.90
5850;DHT22;2951;47.712;9.400;2023-06-19T06:53:02;20.80;99.90
5850;DHT22;2951;47.712;9.400;2023-06-19T06:55:29;20.90;99.90
5850;DHT22;2951;47.712;9.400;2023-06-19T06:57:56;21.00;99.90
5850;DHT22;2951;47.712;9.400;2023-06-19T07:00:22;21.20;99.90
5850;DHT22;2951;47.712;9.400;2023-06-19T07:02:49;21.30;99.90
5850;DHT22;2951;47.712;9.400;2023-06-19T07:05:17;21.50;99.90
5850;DHT22;2951;47.712;9.400;2023-06-19T07:07:44;21.70;99.90
5850;DHT22;2951;47.712;9.400;2023-06-19T07:10:10;21.90;99.90
5850;DHT22;2951;47.712;9.400;2023-06-19T07:12:55;21.80;99.90
5850;DHT22;2951;47.712;9.400;2023-06-19T07:15:22;21.80;99.90
5850;DHT22;2951;47.712;9.400;2023-06-19T07:17:49;21.90;99.90
5850;DHT22;2951;47.712;9.400;2023-06-19T07:20:15;21.90;99.90
5850;DHT22;2951;47.712;9.400;2023-06-19T07:22:42;22.20;99.90
5850;DHT22;2951;47.712;9.400;2023-06-19T07:25:09;22.40;99.90
5850;DHT22;2951;47.712;9.400;2023-06-19T07:27:37;22.40;99.90
5850;DHT22;2951;47.712;9.400;2023-06-19T07:30:04;22.50;99.90
5850;DHT22;2951;47.712;9.400;2023-06-19T07:32:31;22.60;99.90
5850;DHT22;2951;47.712;9.400;2023-06-19T07:34:58;22.40;99.90
5850;DHT22;2951;47.712;9.400;2023-06-19T07:37:24;22.20;99.90
5850;DHT22;2951;47.712;9.400;2023-06-19T07:39:51;22.20;99.90
5850;DHT22;2951;47.712;9.400;2023-06-19T07:42:18;22.30;99.90
5850;DHT22;2951;47.712;9.400;2023-06-19T07:44:46;22.50;99.90
5850;DHT22;2951;47.712;9.400;2023-06-19T07:47:14;22.50;99.90
5850;DHT22;2951;47.712;9.400;2023-06-19T07:49:41;22.40;99.90
5850;DHT22;2951;47.712;9.400;2023-06-19T07:52:07;22.20;99.90
5850;DHT22;2951;47.712;9.400;2023-06-19T07:54:58;22.20;99.90
5850;DHT22;2951;47.712;9.400;2023-06-19T07:57:25;22.20;99.90
5850;DHT22;2951;47.712;9.400;2023-06-19T07:59:53;22.40;99.90
5850;DHT22;2951;47.712;9.400;2023-06-19T08:02:20;22.50;99.90
5850;DHT22;2951;47.712;9.400;2023-06-19T08:04:47;22.40;99.90
5850;DHT22;2951;47.712;9.400;2023-06-19T08:07:13;22.30;99.90
5850;DHT22;2951;47.712;9.400;2023-06-19T08:09:40;22.20;99.90
5850;DHT22;2951;47.712;9.400;2023-06-19T08:12:07;22.10;99.90
5850;DHT22;2951;47.712;9.400;2023-06-19T08:14:34;22.00;99.90
5850;DHT22;2951;47.712;9.400;2023-06-19T08:17:01;21.80;99.90
5850;DHT22;2951;47.712;9.400;2023-06-19T08:19:27;21.90;99.90
5850;DHT22;2951;47.712;9.400;2023-06-19T08:21:54;21.70;99.90
5850;DHT22;2951;47.712;9.400;2023-06-19T08:24:21;21.60;99.90
5850;DHT22;2951;47.712;9.400;2023-06-19T08:26:48;21.60;99.90
5850;DHT22;2951;47.712;9.400;2023-06-19T08:29:18;21.80;99.90
5850;DHT22;2951;47.712;9.400;2023-06-19T08:31:45;21.90;99.90
5850;DHT22;2951;47.712;9.400;2023-06-19T08:34:11;22.10;99.90
5850;DHT22;2951;47.712;9.400;2023-06-19T08:36:38;22.40;99.90
5850;DHT22;2951;47.712;9.400;2023-06-19T08:39:05;22.60;99.90
5850;DHT22;2951;47.712;9.400;2023-06-19T08:41:36;22.70;99.90
5850;DHT22;2951;47.712;9.400;2023-06-19T08:44:02;22.90;99.90
5850;DHT22;2951;47.712;9.400;2023-06-19T08:46:29;22.90;99.90
5850;DHT22;2951;47.712;9.400;2023-06-19T08:48:56;23.00;99.90
5850;DHT22;2951;47.712;9.400;2023-06-19T08:51:23;23.10;99.90
5850;DHT22;2951;47.712;9.400;2023-06-19T08:53:54;23.00;99.90
5850;DHT22;2951;47.712;9.400;2023-06-19T08:56:21;22.90;99.90
5850;DHT22;2951;47.712;9.400;2023-06-19T08:58:48;22.90;99.90
5850;DHT22;2951;47.712;9.400;2023-06-19T09:01:18;23.10;99.90
5850;DHT22;2951;47.712;9.400;2023-06-19T09:03:46;22.90;99.90
5850;DHT22;2951;47.712;9.400;2023-06-19T09:06:16;23.10;99.90
5850;DHT22;2951;47.712;9.400;2023-06-19T09:08:43;23.20;99.90
5850;DHT22;2951;47.712;9.400;2023-06-19T09:11:10;23.30;99.90
5850;DHT22;2951;47.712;9.400;2023-06-19T09:13:37;23.40;99.90
5850;DHT22;2951;47.712;9.400;2023-06-19T09:16:05;23.70;99.90
5850;DHT22;2951;47.712;9.400;2023-06-19T09:18:45;23.90;99.90
5850;DHT22;2951;47.712;9.400;2023-06-19T09:21:19;23.90;99.90
5850;DHT22;2951;47.712;9.400;2023-06-19T09:23:47;23.90;99.90
5850;DHT22;2951;47.712;9.400;2023-06-19T09:26:16;24.00;99.90
5850;DHT22;2951;47.712;9.400;2023-06-19T09:28:44;24.00;99.90
5850;DHT22;2951;47.712;9.400;2023-06-19T09:31:11;24.10;99.90
5850;DHT22;2951;47.712;9.400;2023-06-19T09:33:39;24.10;99.90
5850;DHT22;2951;47.712;9.400;2023-06-19T09:36:06;24.20;99.90
5850;DHT22;2951;47.712;9.400;2023-06-19T09:38:35;24.30;99.90
5850;DHT22;2951;47.712;9.400;2023-06-19T09:41:02;24.60;99.90
5850;DHT22;2951;47.712;9.400;2023-06-19T09:43:39;24.60;99.90
5850;DHT22;2951;47.712;9.400;2023-06-19T09:46:07;24.60;99.90
5850;DHT22;2951;47.712;9.400;2023-06-19T09:48:34;24.80;99.90
5850;DHT22;2951;47.712;9.400;2023-06-19T09:53:30;24.80;99.90
5850;DHT22;2951;47.712;9.400;2023-06-19T09:55:58;24.90;99.90
5850;DHT22;2951;47.712;9.400;2023-06-19T09:58:25;25.00;99.90
5850;DHT22;2951;47.712;9.400;2023-06-19T10:00:52;25.00;99.90
5850;DHT22;2951;47.712;9.400;2023-06-19T10:03:20;25.00;99.90
5850;DHT22;2951;47.712;9.400;2023-06-19T10:05:47;25.20;99.90
5850;DHT22;2951;47.712;9.400;2023-06-19T10:08:13;25.50;99.90
5850;DHT22;2951;47.712;9.400;2023-06-19T10:10:46;25.60;99.90
5850;DHT22;2951;47.712;9.400;2023-06-19T10:13:14;25.50;99.90
5850;DHT22;2951;47.712;9.400;2023-06-19T10:15:42;25.60;99.90
5850;DHT22;2951;47.712;9.400;2023-06-19T10:18:18;25.70;99.90
5850;DHT22;2951;47.712;9.400;2023-06-19T10:20:45;25.90;99.90
5850;DHT22;2951;47.712;9.400;2023-06-19T10:23:16;25.90;99.90
5850;DHT22;2951;47.712;9.400;2023-06-19T10:25:45;26.00;99.90
5850;DHT22;2951;47.712;9.400;2023-06-19T10:28:19;26.50;99.90
5850;DHT22;2951;47.712;9.400;2023-06-19T10:30:51;26.90;99.90
5850;DHT22;2951;47.712;9.400;2023-06-19T10:33:18;26.90;99.90
5850;DHT22;2951;47.712;9.400;2023-06-19T10:35:45;26.90;99.90
5850;DHT22;2951;47.712;9.400;2023-06-19T10:38:14;27.10;99.90
5850;DHT22;2951;47.712;9.400;2023-06-19T10:40:41;26.70;99.90
5850;DHT22;2951;47.712;9.400;2023-06-19T10:43:08;26.80;99.90
5850;DHT22;2951;47.712;9.400;2023-06-19T10:45:34;26.90;99.90
5850;DHT22;2951;47.712;9.400;2023-06-19T10:48:03;26.90;99.90
5850;DHT22;2951;47.712;9.400;2023-06-19T10:50:34;27.00;99.90
5850;DHT22;2951;47.712;9.400;2023-06-19T10:53:01;26.80;99.90
5850;DHT22;2951;47.712;9.400;2023-06-19T10:55:28;26.70;99.90
5850;DHT22;2951;47.712;9.400;2023-06-19T10:57:55;26.50;99.90
5850;DHT22;2951;47.712;9.400;2023-06-19T11:00:22;26.70;99.90
5850;DHT22;2951;47.712;9.400;2023-06-19T11:02:49;26.90;99.90
5850;DHT22;2951;47.712;9.400;2023-06-19T11:05:18;26.90;99.90
5850;DHT22;2951;47.712;9.400;2023-06-19T11:07:52;27.10;99.90
5850;DHT22;2951;47.712;9.400;2023-06-19T11:10:23;27.20;99.90
5850;DHT22;2951;47.712;9.400;2023-06-19T11:12:54;27.40;99.90
5850;DHT22;2951;47.712;9.400;2023-06-19T11:15:30;27.10;99.90
5850;DHT22;2951;47.712;9.400;2023-06-19T11:17:57;27.30;99.90
5850;DHT22;2951;47.712;9.400;2023-06-19T11:20:24;27.10;99.90
5850;DHT22;2951;47.712;9.400;2023-06-19T11:22:59;26.60;99.90
5850;DHT22;2951;47.712;9.400;2023-06-19T11:25:40;26.90;99.90
5850;DHT22;2951;47.712;9.400;2023-06-19T11:28:16;26.80;99.90
5850;DHT22;2951;47.712;9.400;2023-06-19T11:30:44;26.80;99.90
5850;DHT22;2951;47.712;9.400;2023-06-19T11:33:18;26.90;99.90
5850;DHT22;2951;47.712;9.400;2023-06-19T11:35:49;26.90;99.90
5850;DHT22;2951;47.712;9.400;2023-06-19T11:38:19;27.10;99.90
5850;DHT22;2951;47.712;9.400;2023-06-19T11:40:46;27.20;99.90
5850;DHT22;2951;47.712;9.400;2023-06-19T11:43:23;27.40;99.90
5850;DHT22;2951;47.712;9.400;2023-06-19T11:45:49;27.70;99.90
5850;DHT22;2951;47.712;9.400;2023-06-19T11:48:21;27.80;99.90
5850;DHT22;2951;47.712;9.400;2023-06-19T11:50:48;28.30;99.90
5850;DHT22;2951;47.712;9.400;2023-06-19T11:53:14;28.30;99.90
5850;DHT22;2951;47.712;9.400;2023-06-19T11:55:42;28.30;99.90
5850;DHT22;2951;47.712;9.400;2023-06-19T11:58:10;28.30;99.90
5850;DHT22;2951;47.712;9.400;2023-06-19T12:00:37;28.40;99.90
5850;DHT22;2951;47.712;9.400;2023-06-19T12:03:04;28.40;99.90
5850;DHT22;2951;47.712;9.400;2023-06-19T12:05:31;28.40;99.90
5850;DHT22;2951;47.712;9.400;2023-06-19T12:07:57;28.20;99.90
5850;DHT22;2951;47.712;9.400;2023-06-19T12:10:24;28.20;99.90
5850;DHT22;2951;47.712;9.400;2023-06-19T12:12:51;28.30;99.90
5850;DHT22;2951;47.712;9.400;2023-06-19T12:15:18;28.20;99.90
5850;DHT22;2951;47.712;9.400;2023-06-19T12:17:45;28.00;99.90
5850;DHT22;2951;47.712;9.400;2023-06-19T12:20:12;28.10;99.90
5850;DHT22;2951;47.712;9.400;2023-06-19T12:22:42;28.30;99.90
5850;DHT22;2951;47.712;9.400;2023-06-19T12:25:09;28.60;99.90
5850;DHT22;2951;47.712;9.400;2023-06-19T12:27:37;28.70;99.90
5850;DHT22;2951;47.712;9.400;2023-06-19T12:30:04;28.70;99.90
5850;DHT22;2951;47.712;9.400;2023-06-19T12:32:31;28.70;99.90
5850;DHT22;2951;47.712;9.400;2023-06-19T12:34:58;28.60;99.90
5850;DHT22;2951;47.712;9.400;2023-06-19T12:37:25;28.80;99.90
5850;DHT22;2951;47.712;9.400;2023-06-19T12:39:52;28.70;99.90
5850;DHT22;2951;47.712;9.400;2023-06-19T12:42:18;29.20;99.90
5850;DHT22;2951;47.712;9.400;2023-06-19T12:44:46;29.60;99.90
5850;DHT22;2951;47.712;9.400;2023-06-19T12:47:13;29.80;99.90
5850;DHT22;2951;47.712;9.400;2023-06-19T12:49:39;30.10;99.90
5850;DHT22;2951;47.712;9.400;2023-06-19T12:52:06;30.00;99.90
5850;DHT22;2951;47.712;9.400;2023-06-19T12:54:33;29.70;99.90
5850;DHT22;2951;47.712;9.400;2023-06-19T12:57:00;29.60;99.90
5850;DHT22;2951;47.712;9.400;2023-06-19T12:59:26;29.70;99.90
5850;DHT22;2951;47.712;9.400;2023-06-19T13:01:53;30.00;99.90
5850;DHT22;2951;47.712;9.400;2023-06-19T13:04:20;30.20;99.90
5850;DHT22;2951;47.712;9.400;2023-06-19T13:06:47;30.00;99.90
5850;DHT22;2951;47.712;9.400;2023-06-19T13:09:13;30.30;99.90
5850;DHT22;2951;47.712;9.400;2023-06-19T13:11:40;30.50;99.90
5850;DHT22;2951;47.712;9.400;2023-06-19T13:14:07;30.20;99.90
5850;DHT22;2951;47.712;9.400;2023-06-19T13:16:34;30.40;99.90
5850;DHT22;2951;47.712;9.400;2023-06-19T13:19:12;30.70;99.90
5850;DHT22;2951;47.712;9.400;2023-06-19T13:21:38;30.60;99.90
5850;DHT22;2951;47.712;9.400;2023-06-19T13:24:05;30.20;99.90
5850;DHT22;2951;47.712;9.400;2023-06-19T13:26:32;29.90;99.90
5850;DHT22;2951;47.712;9.400;2023-06-19T13:28:59;29.90;99.90
5850;DHT22;2951;47.712;9.400;2023-06-19T13:31:27;29.90;99.90
5850;DHT22;2951;47.712;9.400;2023-06-19T13:33:54;30.30;99.90
5850;DHT22;2951;47.712;9.400;2023-06-19T13:36:20;30.50;99.90
5850;DHT22;2951;47.712;9.400;2023-06-19T13:38:47;30.70;99.90
5850;DHT22;2951;47.712;9.400;2023-06-19T13:41:15;30.50;99.90
5850;DHT22;2951;47.712;9.400;2023-06-19T13:43:42;30.60;99.90
5850;DHT22;2951;47.712;9.400;2023-06-19T13:46:08;30.70;99.90
5850;DHT22;2951;47.712;9.400;2023-06-19T13:48:35;30.40;99.90
5850;DHT22;2951;47.712;9.400;2023-06-19T13:51:02;30.10;99.90
5850;DHT22;2951;47.712;9.400;2023-06-19T13:53:29;30.70;99.90
5850;DHT22;2951;47.712;9.400;2023-06-19T13:55:56;31.20;99.90
5850;DHT22;2951;47.712;9.400;2023-06-19T13:58:23;31.90;99.90
5850;DHT22;2951;47.712;9.400;2023-06-19T14:00:50;32.40;99.90
5850;DHT22;2951;47.712;9.400;2023-06-19T14:03:17;32.50;99.90
5850;DHT22;2951;47.712;9.400;2023-06-19T14:05:44;32.90;99.90
5850;DHT22;2951;47.712;9.400;2023-06-19T14:08:11;32.50;99.90
5850;DHT22;2951;47.712;9.400;2023-06-19T14:10:37;32.00;99.90
5850;DHT22;2951;47.712;9.400;2023-06-19T14:13:04;31.70;99.90
5850;DHT22;2951;47.712;9.400;2023-06-19T14:15:31;31.90;99.90
5850;DHT22;2951;47.712;9.400;2023-06-19T14:17:58;31.40;99.90
5850;DHT22;2951;47.712;9.400;2023-06-19T14:20:25;31.60;99.90
5850;DHT22;2951;47.712;9.400;2023-06-19T14:22:52;31.90;99.90
5850;DHT22;2951;47.712;9.400;2023-06-19T14:25:18;32.50;99.90
5850;DHT22;2951;47.712;9.400;2023-06-19T14:27:45;32.60;99.90
5850;DHT22;2951;47.712;9.400;2023-06-19T14:30:12;33.00;99.90
5850;DHT22;2951;47.712;9.400;2023-06-19T14:32:39;32.80;99.90
5850;DHT22;2951;47.712;9.400;2023-06-19T14:35:06;33.00;99.90
5850;DHT22;2951;47.712;9.400;2023-06-19T14:37:33;33.20;99.90
5850;DHT22;2951;47.712;9.400;2023-06-19T14:40:00;33.00;99.90
5850;DHT22;2951;47.712;9.400;2023-06-19T14:42:27;33.30;99.90
5850;DHT22;2951;47.712;9.400;2023-06-19T14:44:54;33.80;99.90
5850;DHT22;2951;47.712;9.400;2023-06-19T14:47:21;33.60;99.90
5850;DHT22;2951;47.712;9.400;2023-06-19T14:49:48;33.60;99.90
5850;DHT22;2951;47.712;9.400;2023-06-19T14:52:15;33.70;99.90
5850;DHT22;2951;47.712;9.400;2023-06-19T14:54:42;34.30;99.90
5850;DHT22;2951;47.712;9.400;2023-06-19T14:57:09;34.70;99.90
5850;DHT22;2951;47.712;9.400;2023-06-19T14:59:36;35.10;99.90
5850;DHT22;2951;47.712;9.400;2023-06-19T15:02:02;35.30;99.90
5850;DHT22;2951;47.712;9.400;2023-06-19T15:04:29;34.80;99.90
5850;DHT22;2951;47.712;9.400;2023-06-19T15:06:56;35.20;99.90
5850;DHT22;2951;47.712;9.400;2023-06-19T15:09:23;36.00;99.90
5850;DHT22;2951;47.712;9.400;2023-06-19T15:11:50;36.30;99.90
5850;DHT22;2951;47.712;9.400;2023-06-19T15:14:17;36.00;99.90
5850;DHT22;2951;47.712;9.400;2023-06-19T15:16:44;34.70;99.90
5850;DHT22;2951;47.712;9.400;2023-06-19T15:19:11;34.90;99.90
5850;DHT22;2951;47.712;9.400;2023-06-19T15:21:38;34.90;99.90
5850;DHT22;2951;47.712;9.400;2023-06-19T15:24:05;35.60;99.90
5850;DHT22;2951;47.712;9.400;2023-06-19T15:26:36;36.00;99.90
5850;DHT22;2951;47.712;9.400;2023-06-19T15:29:05;35.10;99.90
5850;DHT22;2951;47.712;9.400;2023-06-19T15:31:32;35.00;99.90
5850;DHT22;2951;47.712;9.400;2023-06-19T15:33:59;34.10;99.90
5850;DHT22;2951;47.712;9.400;2023-06-19T15:36:26;33.80;99.90
5850;DHT22;2951;47.712;9.400;2023-06-19T15:38:53;33.20;99.90
5850;DHT22;2951;47.712;9.400;2023-06-19T15:41:20;32.70;99.90
5850;DHT22;2951;47.712;9.400;2023-06-19T15:43:47;32.10;99.90
5850;DHT22;2951;47.712;9.400;2023-06-19T15:46:14;31.40;99.90
5850;DHT22;2951;47.712;9.400;2023-06-19T15:48:40;31.20;99.90
5850;DHT22;2951;47.712;9.400;2023-06-19T15:51:08;30.90;99.90
5850;DHT22;2951;47.712;9.400;2023-06-19T15:53:39;30.70;99.90
5850;DHT22;2951;47.712;9.400;2023-06-19T15:56:05;30.60;99.90
5850;DHT22;2951;47.712;9.400;2023-06-19T15:58:32;30.40;99.90
5850;DHT22;2951;47.712;9.400;2023-06-19T16:01:00;30.20;99.90
5850;DHT22;2951;47.712;9.400;2023-06-19T16:03:27;30.20;99.90
5850;DHT22;2951;47.712;9.400;2023-06-19T16:05:56;30.20;99.90
5850;DHT22;2951;47.712;9.400;2023-06-19T16:08:32;30.20;99.90